sensor_id;sensor_type;location;lat;lon;timestamp;P1;durP1;ratioP1;P2;durP2;ratioP2
29384;SDS011;16367;48.736;9.218;2022-11-25T00:01:40;9.43;;;3.28;;
29384;SDS011;16367;48.736;9.218;2022-11-25T00:03:45;15.70;;;3.67;;
29384;SDS011;16367;48.736;9.218;2022-11-25T00:05:49;6.72;;;3.53;;
29384;SDS011;16367;48.736;9.218;2022-11-25T00:07:51;12.48;;;3.45;;
29384;SDS011;16367;48.736;9.218;2022-11-25T00:09:54;9.07;;;3.60;;
29384;SDS011;16367;48.736;9.218;2022-11-25T00:11:57;9.07;;;3.40;;
29384;SDS011;16367;48.736;9.218;2022-11-25T00:14:00;12.55;;;4.07;;
29384;SDS011;16367;48.736;9.218;2022-11-25T00:16:03;8.48;;;3.13;;
29384;SDS011;16367;48.736;9.218;2022-11-25T00:18:07;9.68;;;3.42;;
29384;SDS011;16367;48.736;9.218;2022-11-25T00:22:16;8.15;;;3.10;;
29384;SDS011;16367;48.736;9.218;2022-11-25T00:24:18;10.15;;;3.30;;
29384;SDS011;16367;48.736;9.218;2022-11-25T00:26:22;6.28;;;3.00;;
29384;SDS011;16367;48.736;9.218;2022-11-25T00:28:26;13.02;;;3.80;;
29384;SDS011;16367;48.736;9.218;2022-11-25T00:30:29;11.52;;;3.53;;
29384;SDS011;16367;48.736;9.218;2022-11-25T00:32:31;9.50;;;3.33;;
29384;SDS011;16367;48.736;9.218;2022-11-25T00:34:34;9.55;;;3.45;;
29384;SDS011;16367;48.736;9.218;2022-11-25T00:36:39;9.27;;;3.10;;
29384;SDS011;16367;48.736;9.218;2022-11-25T00:38:42;8.18;;;2.95;;
29384;SDS011;16367;48.736;9.218;2022-11-25T00:40:45;9.13;;;3.22;;
29384;SDS011;16367;48.736;9.218;2022-11-25T00:43:08;7.97;;;2.67;;
29384;SDS011;16367;48.736;9.218;2022-11-25T00:45:29;10.52;;;3.55;;
29384;SDS011;16367;48.736;9.218;2022-11-25T00:47:30;12.20;;;3.50;;
29384;SDS011;16367;48.736;9.218;2022-11-25T00:49:33;8.45;;;2.92;;
29384;SDS011;16367;48.736;9.218;2022-11-25T00:51:36;7.93;;;2.85;;
29384;SDS011;16367;48.736;9.218;2022-11-25T00:53:41;10.10;;;3.42;;
29384;SDS011;16367;48.736;9.218;2022-11-25T00:55:44;11.60;;;3.20;;
29384;SDS011;16367;48.736;9.218;2022-11-25T00:58:04;6.43;;;2.65;;
29384;SDS011;16367;48.736;9.218;2022-11-25T01:00:08;9.43;;;3.28;;
29384;SDS011;16367;48.736;9.218;2022-11-25T01:02:13;9.57;;;3.05;;
29384;SDS011;16367;48.736;9.218;2022-11-25T01:04:17;8.27;;;3.10;;
29384;SDS011;16367;48.736;9.218;2022-11-25T01:06:20;9.15;;;3.47;;
29384;SDS011;16367;48.736;9.218;2022-11-25T01:08:25;10.48;;;3.25;;
29384;SDS011;16367;48.736;9.218;2022-11-25T01:10:28;12.38;;;3.45;;
29384;SDS011;16367;48.736;9.218;2022-11-25T01:12:30;11.70;;;3.63;;
29384;SDS011;16367;48.736;9.218;2022-11-25T01:14:33;10.68;;;3.15;;
29384;SDS011;16367;48.736;9.218;2022-11-25T01:16:37;9.52;;;3.25;;
29384;SDS011;16367;48.736;9.218;2022-11-25T01:18:39;8.73;;;3.15;;
29384;SDS011;16367;48.736;9.218;2022-11-25T01:20:42;10.50;;;3.05;;
29384;SDS011;16367;48.736;9.218;2022-11-25T01:22:45;12.63;;;3.55;;
29384;SDS011;16367;48.736;9.218;2022-11-25T01:24:49;10.15;;;3.40;;
29384;SDS011;16367;48.736;9.218;2022-11-25T01:26:52;10.07;;;3.10;;
29384;SDS011;16367;48.736;9.218;2022-11-25T01:28:56;8.43;;;3.28;;
29384;SDS011;16367;48.736;9.218;2022-11-25T01:31:01;9.13;;;3.28;;
29384;SDS011;16367;48.736;9.218;2022-11-25T01:33:05;8.90;;;3.35;;
29384;SDS011;16367;48.736;9.218;2022-11-25T01:35:08;11.52;;;3.20;;
29384;SDS011;16367;48.736;9.218;2022-11-25T01:37:11;8.40;;;3.38;;
29384;SDS011;16367;48.736;9.218;2022-11-25T01:39:15;9.15;;;3.20;;
29384;SDS011;16367;48.736;9.218;2022-11-25T01:41:21;10.27;;;3.70;;
29384;SDS011;16367;48.736;9.218;2022-11-25T01:43:26;11.18;;;3.22;;
29384;SDS011;16367;48.736;9.218;2022-11-25T01:45:34;11.65;;;3.60;;
29384;SDS011;16367;48.736;9.218;2022-11-25T01:47:37;11.85;;;4.20;;
29384;SDS011;16367;48.736;9.218;2022-11-25T01:49:41;13.55;;;4.47;;
29384;SDS011;16367;48.736;9.218;2022-11-25T01:51:48;9.48;;;3.88;;
29384;SDS011;16367;48.736;9.218;2022-11-25T01:53:55;8.77;;;4.43;;
29384;SDS011;16367;48.736;9.218;2022-11-25T01:56:02;14.35;;;4.30;;
29384;SDS011;16367;48.736;9.218;2022-11-25T01:58:07;16.23;;;4.80;;
29384;SDS011;16367;48.736;9.218;2022-11-25T02:00:13;13.48;;;4.68;;
29384;SDS011;16367;48.736;9.218;2022-11-25T02:02:16;12.23;;;4.50;;
29384;SDS011;16367;48.736;9.218;2022-11-25T02:04:22;12.57;;;4.35;;
29384;SDS011;16367;48.736;9.218;2022-11-25T02:06:31;12.13;;;4.97;;
29384;SDS011;16367;48.736;9.218;2022-11-25T02:08:40;12.55;;;4.43;;
29384;SDS011;16367;48.736;9.218;2022-11-25T02:10:46;11.40;;;4.70;;
29384;SDS011;16367;48.736;9.218;2022-11-25T02:12:49;12.60;;;5.20;;
29384;SDS011;16367;48.736;9.218;2022-11-25T02:14:55;11.18;;;5.50;;
29384;SDS011;16367;48.736;9.218;2022-11-25T02:17:00;11.30;;;4.72;;
29384;SDS011;16367;48.736;9.218;2022-11-25T02:19:03;13.05;;;5.97;;
29384;SDS011;16367;48.736;9.218;2022-11-25T02:21:08;12.57;;;5.10;;
29384;SDS011;16367;48.736;9.218;2022-11-25T02:23:13;12.02;;;5.38;;
29384;SDS011;16367;48.736;9.218;2022-11-25T02:25:20;14.07;;;5.45;;
29384;SDS011;16367;48.736;9.218;2022-11-25T02:27:25;11.02;;;4.47;;
29384;SDS011;16367;48.736;9.218;2022-11-25T02:29:28;11.20;;;4.32;;
29384;SDS011;16367;48.736;9.218;2022-11-25T02:31:31;9.45;;;4.35;;
29384;SDS011;16367;48.736;9.218;2022-11-25T02:33:34;11.25;;;4.55;;
29384;SDS011;16367;48.736;9.218;2022-11-25T02:35:38;13.20;;;5.10;;
29384;SDS011;16367;48.736;9.218;2022-11-25T02:37:42;11.10;;;4.25;;
29384;SDS011;16367;48.736;9.218;2022-11-25T02:39:45;10.55;;;4.18;;
29384;SDS011;16367;48.736;9.218;2022-11-25T02:41:50;13.10;;;5.03;;
29384;SDS011;16367;48.736;9.218;2022-11-25T02:43:56;11.98;;;4.03;;
29384;SDS011;16367;48.736;9.218;2022-11-25T02:46:00;11.93;;;5.50;;
29384;SDS011;16367;48.736;9.218;2022-11-25T02:48:06;17.92;;;4.85;;
29384;SDS011;16367;48.736;9.218;2022-11-25T02:50:10;10.60;;;4.53;;
29384;SDS011;16367;48.736;9.218;2022-11-25T02:52:14;13.00;;;5.05;;
29384;SDS011;16367;48.736;9.218;2022-11-25T02:54:16;14.98;;;5.72;;
29384;SDS011;16367;48.736;9.218;2022-11-25T02:56:20;11.10;;;5.63;;
29384;SDS011;16367;48.736;9.218;2022-11-25T02:58:27;11.13;;;4.55;;
29384;SDS011;16367;48.736;9.218;2022-11-25T03:00:29;13.70;;;5.15;;
29384;SDS011;16367;48.736;9.218;2022-11-25T03:02:32;11.55;;;4.85;;
29384;SDS011;16367;48.736;9.218;2022-11-25T03:04:35;9.35;;;4.50;;
29384;SDS011;16367;48.736;9.218;2022-11-25T03:06:39;12.70;;;4.13;;
29384;SDS011;16367;48.736;9.218;2022-11-25T03:08:42;12.52;;;4.78;;
29384;SDS011;16367;48.736;9.218;2022-11-25T03:10:44;9.23;;;4.18;;
29384;SDS011;16367;48.736;9.218;2022-11-25T03:12:47;9.90;;;4.13;;
29384;SDS011;16367;48.736;9.218;2022-11-25T03:14:51;11.10;;;4.22;;
29384;SDS011;16367;48.736;9.218;2022-11-25T03:16:54;11.52;;;5.07;;
29384;SDS011;16367;48.736;9.218;2022-11-25T03:18:57;11.05;;;4.28;;
29384;SDS011;16367;48.736;9.218;2022-11-25T03:21:00;12.52;;;4.78;;
29384;SDS011;16367;48.736;9.218;2022-11-25T03:23:03;14.13;;;5.10;;
29384;SDS011;16367;48.736;9.218;2022-11-25T03:25:07;12.38;;;5.20;;
29384;SDS011;16367;48.736;9.218;2022-11-25T03:27:10;10.52;;;4.80;;
29384;SDS011;16367;48.736;9.218;2022-11-25T03:29:13;12.35;;;5.32;;
29384;SDS011;16367;48.736;9.218;2022-11-25T03:31:17;14.68;;;5.82;;
29384;SDS011;16367;48.736;9.218;2022-11-25T03:33:20;12.43;;;5.47;;
29384;SDS011;16367;48.736;9.218;2022-11-25T03:35:23;12.05;;;5.72;;
29384;SDS011;16367;48.736;9.218;2022-11-25T03:37:26;15.40;;;6.20;;
29384;SDS011;16367;48.736;9.218;2022-11-25T03:39:29;13.20;;;5.40;;
29384;SDS011;16367;48.736;9.218;2022-11-25T03:41:31;14.40;;;5.50;;
29384;SDS011;16367;48.736;9.218;2022-11-25T03:43:34;12.75;;;5.65;;
29384;SDS011;16367;48.736;9.218;2022-11-25T03:45:37;11.90;;;5.30;;
29384;SDS011;16367;48.736;9.218;2022-11-25T03:47:41;12.85;;;5.90;;
29384;SDS011;16367;48.736;9.218;2022-11-25T03:49:45;12.23;;;5.53;;
29384;SDS011;16367;48.736;9.218;2022-11-25T03:51:48;11.23;;;5.72;;
29384;SDS011;16367;48.736;9.218;2022-11-25T03:53:51;15.50;;;5.50;;
29384;SDS011;16367;48.736;9.218;2022-11-25T03:55:54;14.13;;;5.18;;
29384;SDS011;16367;48.736;9.218;2022-11-25T03:57:56;14.13;;;6.20;;
29384;SDS011;16367;48.736;9.218;2022-11-25T03:59:59;12.25;;;6.07;;
29384;SDS011;16367;48.736;9.218;2022-11-25T04:02:02;15.60;;;6.43;;
29384;SDS011;16367;48.736;9.218;2022-11-25T04:04:06;16.17;;;6.75;;
29384;SDS011;16367;48.736;9.218;2022-11-25T04:06:09;14.30;;;6.35;;
29384;SDS011;16367;48.736;9.218;2022-11-25T04:08:12;17.52;;;7.32;;
29384;SDS011;16367;48.736;9.218;2022-11-25T04:10:15;16.88;;;7.28;;
29384;SDS011;16367;48.736;9.218;2022-11-25T04:12:18;13.45;;;6.82;;
29384;SDS011;16367;48.736;9.218;2022-11-25T04:14:38;15.77;;;7.28;;
29384;SDS011;16367;48.736;9.218;2022-11-25T04:16:41;14.30;;;7.60;;
29384;SDS011;16367;48.736;9.218;2022-11-25T04:18:44;15.38;;;6.75;;
29384;SDS011;16367;48.736;9.218;2022-11-25T04:20:48;12.38;;;6.32;;
29384;SDS011;16367;48.736;9.218;2022-11-25T04:22:51;14.20;;;5.13;;
29384;SDS011;16367;48.736;9.218;2022-11-25T04:24:53;14.27;;;6.63;;
29384;SDS011;16367;48.736;9.218;2022-11-25T04:26:56;12.70;;;6.22;;
29384;SDS011;16367;48.736;9.218;2022-11-25T04:28:59;14.32;;;7.03;;
29384;SDS011;16367;48.736;9.218;2022-11-25T04:31:04;15.57;;;7.53;;
29384;SDS011;16367;48.736;9.218;2022-11-25T04:33:08;14.93;;;7.05;;
29384;SDS011;16367;48.736;9.218;2022-11-25T04:35:10;16.88;;;7.22;;
29384;SDS011;16367;48.736;9.218;2022-11-25T04:37:15;21.48;;;8.32;;
29384;SDS011;16367;48.736;9.218;2022-11-25T04:39:17;18.20;;;8.45;;
29384;SDS011;16367;48.736;9.218;2022-11-25T04:41:20;21.08;;;8.32;;
29384;SDS011;16367;48.736;9.218;2022-11-25T04:43:23;16.08;;;7.45;;
29384;SDS011;16367;48.736;9.218;2022-11-25T04:45:26;22.17;;;9.85;;
29384;SDS011;16367;48.736;9.218;2022-11-25T04:47:49;20.20;;;8.50;;
29384;SDS011;16367;48.736;9.218;2022-11-25T04:49:52;20.98;;;9.10;;
29384;SDS011;16367;48.736;9.218;2022-11-25T04:51:55;22.02;;;9.60;;
29384;SDS011;16367;48.736;9.218;2022-11-25T04:53:59;21.95;;;10.18;;
29384;SDS011;16367;48.736;9.218;2022-11-25T04:56:02;19.88;;;8.57;;
29384;SDS011;16367;48.736;9.218;2022-11-25T04:58:06;18.67;;;8.63;;
29384;SDS011;16367;48.736;9.218;2022-11-25T05:00:09;22.48;;;8.45;;
29384;SDS011;16367;48.736;9.218;2022-11-25T05:02:12;20.30;;;9.18;;
29384;SDS011;16367;48.736;9.218;2022-11-25T05:04:16;20.95;;;9.10;;
29384;SDS011;16367;48.736;9.218;2022-11-25T05:06:19;19.58;;;8.60;;
29384;SDS011;16367;48.736;9.218;2022-11-25T05:08:22;18.67;;;8.30;;
29384;SDS011;16367;48.736;9.218;2022-11-25T05:10:26;18.10;;;8.25;;
29384;SDS011;16367;48.736;9.218;2022-11-25T05:12:29;19.98;;;8.35;;
29384;SDS011;16367;48.736;9.218;2022-11-25T05:14:32;17.55;;;8.85;;
29384;SDS011;16367;48.736;9.218;2022-11-25T05:16:36;15.52;;;7.00;;
29384;SDS011;16367;48.736;9.218;2022-11-25T05:18:38;14.30;;;7.22;;
29384;SDS011;16367;48.736;9.218;2022-11-25T05:20:41;16.15;;;7.00;;
29384;SDS011;16367;48.736;9.218;2022-11-25T05:22:45;16.13;;;7.57;;
29384;SDS011;16367;48.736;9.218;2022-11-25T05:24:47;13.15;;;6.57;;
29384;SDS011;16367;48.736;9.218;2022-11-25T05:26:52;14.85;;;6.60;;
29384;SDS011;16367;48.736;9.218;2022-11-25T05:28:54;15.48;;;6.60;;
29384;SDS011;16367;48.736;9.218;2022-11-25T05:30:57;13.30;;;6.60;;
29384;SDS011;16367;48.736;9.218;2022-11-25T05:33:00;14.77;;;6.78;;
29384;SDS011;16367;48.736;9.218;2022-11-25T05:35:03;16.63;;;6.63;;
29384;SDS011;16367;48.736;9.218;2022-11-25T05:37:06;14.07;;;6.07;;
29384;SDS011;16367;48.736;9.218;2022-11-25T05:39:09;15.88;;;6.50;;
29384;SDS011;16367;48.736;9.218;2022-11-25T05:41:12;19.17;;;7.75;;
29384;SDS011;16367;48.736;9.218;2022-11-25T05:43:16;15.85;;;7.55;;
29384;SDS011;16367;48.736;9.218;2022-11-25T05:45:19;19.00;;;7.53;;
29384;SDS011;16367;48.736;9.218;2022-11-25T05:47:21;12.57;;;5.88;;
29384;SDS011;16367;48.736;9.218;2022-11-25T05:49:24;16.77;;;6.72;;
29384;SDS011;16367;48.736;9.218;2022-11-25T05:51:27;20.27;;;7.10;;
29384;SDS011;16367;48.736;9.218;2022-11-25T05:53:30;15.90;;;7.10;;
29384;SDS011;16367;48.736;9.218;2022-11-25T05:55:33;16.45;;;7.07;;
29384;SDS011;16367;48.736;9.218;2022-11-25T05:57:35;15.20;;;6.50;;
29384;SDS011;16367;48.736;9.218;2022-11-25T05:59:40;17.65;;;7.72;;
29384;SDS011;16367;48.736;9.218;2022-11-25T06:01:42;18.10;;;7.82;;
29384;SDS011;16367;48.736;9.218;2022-11-25T06:03:45;18.83;;;8.23;;
29384;SDS011;16367;48.736;9.218;2022-11-25T06:05:48;18.35;;;7.43;;
29384;SDS011;16367;48.736;9.218;2022-11-25T06:07:51;16.60;;;7.47;;
29384;SDS011;16367;48.736;9.218;2022-11-25T06:09:54;13.95;;;7.28;;
29384;SDS011;16367;48.736;9.218;2022-11-25T06:12:03;16.02;;;7.25;;
29384;SDS011;16367;48.736;9.218;2022-11-25T06:14:06;22.58;;;8.65;;
29384;SDS011;16367;48.736;9.218;2022-11-25T06:16:11;17.75;;;8.27;;
29384;SDS011;16367;48.736;9.218;2022-11-25T06:18:16;15.60;;;8.05;;
29384;SDS011;16367;48.736;9.218;2022-11-25T06:20:19;15.10;;;7.63;;
29384;SDS011;16367;48.736;9.218;2022-11-25T06:22:22;15.05;;;7.43;;
29384;SDS011;16367;48.736;9.218;2022-11-25T06:24:25;13.98;;;6.85;;
29384;SDS011;16367;48.736;9.218;2022-11-25T06:26:27;16.02;;;6.78;;
29384;SDS011;16367;48.736;9.218;2022-11-25T06:28:30;14.27;;;6.32;;
29384;SDS011;16367;48.736;9.218;2022-11-25T06:30:33;14.73;;;5.85;;
29384;SDS011;16367;48.736;9.218;2022-11-25T06:32:37;17.20;;;6.38;;
29384;SDS011;16367;48.736;9.218;2022-11-25T06:34:40;14.57;;;6.00;;
29384;SDS011;16367;48.736;9.218;2022-11-25T06:36:43;16.75;;;6.50;;
29384;SDS011;16367;48.736;9.218;2022-11-25T06:38:46;17.17;;;6.32;;
29384;SDS011;16367;48.736;9.218;2022-11-25T06:40:50;14.80;;;5.68;;
29384;SDS011;16367;48.736;9.218;2022-11-25T06:42:57;12.05;;;5.75;;
29384;SDS011;16367;48.736;9.218;2022-11-25T06:45:00;15.30;;;5.72;;
29384;SDS011;16367;48.736;9.218;2022-11-25T06:47:03;11.98;;;6.03;;
29384;SDS011;16367;48.736;9.218;2022-11-25T06:49:07;12.55;;;5.65;;
29384;SDS011;16367;48.736;9.218;2022-11-25T06:51:11;16.15;;;5.88;;
29384;SDS011;16367;48.736;9.218;2022-11-25T06:53:15;14.63;;;5.75;;
29384;SDS011;16367;48.736;9.218;2022-11-25T06:55:24;11.60;;;5.80;;
29384;SDS011;16367;48.736;9.218;2022-11-25T06:57:27;17.52;;;5.78;;
29384;SDS011;16367;48.736;9.218;2022-11-25T06:59:29;15.07;;;5.95;;
29384;SDS011;16367;48.736;9.218;2022-11-25T07:01:33;14.05;;;5.90;;
29384;SDS011;16367;48.736;9.218;2022-11-25T07:03:36;13.27;;;5.80;;
29384;SDS011;16367;48.736;9.218;2022-11-25T07:05:41;11.40;;;5.45;;
29384;SDS011;16367;48.736;9.218;2022-11-25T07:07:44;12.27;;;5.57;;
29384;SDS011;16367;48.736;9.218;2022-11-25T07:09:46;12.57;;;5.43;;
29384;SDS011;16367;48.736;9.218;2022-11-25T07:11:49;11.95;;;5.20;;
29384;SDS011;16367;48.736;9.218;2022-11-25T07:13:52;14.73;;;5.75;;
29384;SDS011;16367;48.736;9.218;2022-11-25T07:15:58;10.98;;;5.32;;
29384;SDS011;16367;48.736;9.218;2022-11-25T07:18:02;14.80;;;5.03;;
29384;SDS011;16367;48.736;9.218;2022-11-25T07:20:05;15.63;;;4.95;;
29384;SDS011;16367;48.736;9.218;2022-11-25T07:22:10;11.07;;;4.43;;
29384;SDS011;16367;48.736;9.218;2022-11-25T07:24:14;9.75;;;4.57;;
29384;SDS011;16367;48.736;9.218;2022-11-25T07:26:18;13.00;;;5.40;;
29384;SDS011;16367;48.736;9.218;2022-11-25T07:28:22;11.52;;;4.93;;
29384;SDS011;16367;48.736;9.218;2022-11-25T07:30:25;13.52;;;4.43;;
29384;SDS011;16367;48.736;9.218;2022-11-25T07:32:47;10.43;;;3.70;;
29384;SDS011;16367;48.736;9.218;2022-11-25T07:34:50;10.05;;;4.28;;
29384;SDS011;16367;48.736;9.218;2022-11-25T07:36:53;8.18;;;3.90;;
29384;SDS011;16367;48.736;9.218;2022-11-25T07:38:57;12.43;;;4.85;;
29384;SDS011;16367;48.736;9.218;2022-11-25T07:41:02;10.30;;;4.55;;
29384;SDS011;16367;48.736;9.218;2022-11-25T07:43:06;11.88;;;4.38;;
29384;SDS011;16367;48.736;9.218;2022-11-25T07:45:09;11.07;;;4.10;;
29384;SDS011;16367;48.736;9.218;2022-11-25T07:47:12;10.60;;;4.30;;
29384;SDS011;16367;48.736;9.218;2022-11-25T07:49:15;11.93;;;4.30;;
29384;SDS011;16367;48.736;9.218;2022-11-25T07:51:20;11.57;;;4.70;;
29384;SDS011;16367;48.736;9.218;2022-11-25T07:53:24;9.63;;;5.40;;
29384;SDS011;16367;48.736;9.218;2022-11-25T07:55:28;10.70;;;4.40;;
29384;SDS011;16367;48.736;9.218;2022-11-25T07:57:31;10.32;;;4.45;;
29384;SDS011;16367;48.736;9.218;2022-11-25T07:59:34;14.05;;;4.65;;
29384;SDS011;16367;48.736;9.218;2022-11-25T08:01:41;13.50;;;4.97;;
29384;SDS011;16367;48.736;9.218;2022-11-25T08:03:45;13.05;;;4.38;;
29384;SDS011;16367;48.736;9.218;2022-11-25T08:05:49;13.60;;;4.60;;
29384;SDS011;16367;48.736;9.218;2022-11-25T08:07:52;12.10;;;4.40;;
29384;SDS011;16367;48.736;9.218;2022-11-25T08:09:55;11.73;;;5.15;;
29384;SDS011;16367;48.736;9.218;2022-11-25T08:11:59;12.63;;;4.97;;
29384;SDS011;16367;48.736;9.218;2022-11-25T08:14:02;12.70;;;4.30;;
29384;SDS011;16367;48.736;9.218;2022-11-25T08:16:06;11.20;;;5.00;;
29384;SDS011;16367;48.736;9.218;2022-11-25T08:18:09;13.65;;;4.72;;
29384;SDS011;16367;48.736;9.218;2022-11-25T08:20:12;11.82;;;3.97;;
29384;SDS011;16367;48.736;9.218;2022-11-25T08:22:15;12.98;;;3.97;;
29384;SDS011;16367;48.736;9.218;2022-11-25T08:24:18;9.82;;;3.95;;
29384;SDS011;16367;48.736;9.218;2022-11-25T08:26:22;11.57;;;4.75;;
29384;SDS011;16367;48.736;9.218;2022-11-25T08:28:28;11.57;;;4.63;;
29384;SDS011;16367;48.736;9.218;2022-11-25T08:30:31;8.77;;;3.92;;
29384;SDS011;16367;48.736;9.218;2022-11-25T08:32:35;7.63;;;3.15;;
29384;SDS011;16367;48.736;9.218;2022-11-25T08:34:38;7.70;;;3.20;;
29384;SDS011;16367;48.736;9.218;2022-11-25T08:36:41;10.00;;;4.00;;
29384;SDS011;16367;48.736;9.218;2022-11-25T08:38:49;9.55;;;3.67;;
29384;SDS011;16367;48.736;9.218;2022-11-25T08:40:54;12.25;;;3.72;;
29384;SDS011;16367;48.736;9.218;2022-11-25T08:42:57;9.80;;;3.35;;
29384;SDS011;16367;48.736;9.218;2022-11-25T08:45:02;9.07;;;3.40;;
29384;SDS011;16367;48.736;9.218;2022-11-25T08:47:06;7.93;;;3.53;;
29384;SDS011;16367;48.736;9.218;2022-11-25T08:49:10;8.35;;;3.58;;
29384;SDS011;16367;48.736;9.218;2022-11-25T08:51:14;9.35;;;3.65;;
29384;SDS011;16367;48.736;9.218;2022-11-25T08:53:19;8.93;;;3.03;;
29384;SDS011;16367;48.736;9.218;2022-11-25T08:55:23;8.68;;;3.70;;
29384;SDS011;16367;48.736;9.218;2022-11-25T08:57:27;8.10;;;3.20;;
29384;SDS011;16367;48.736;9.218;2022-11-25T08:59:30;7.13;;;2.85;;
29384;SDS011;16367;48.736;9.218;2022-11-25T09:01:34;8.98;;;3.33;;
29384;SDS011;16367;48.736;9.218;2022-11-25T09:03:37;9.27;;;3.65;;
29384;SDS011;16367;48.736;9.218;2022-11-25T09:05:41;8.57;;;3.55;;
29384;SDS011;16367;48.736;9.218;2022-11-25T09:07:45;11.65;;;4.25;;
29384;SDS011;16367;48.736;9.218;2022-11-25T09:09:48;8.38;;;3.25;;
29384;SDS011;16367;48.736;9.218;2022-11-25T09:11:51;9.27;;;3.28;;
29384;SDS011;16367;48.736;9.218;2022-11-25T09:13:54;8.60;;;2.85;;
29384;SDS011;16367;48.736;9.218;2022-11-25T09:15:57;9.63;;;3.00;;
29384;SDS011;16367;48.736;9.218;2022-11-25T09:18:03;8.00;;;3.13;;
29384;SDS011;16367;48.736;9.218;2022-11-25T09:22:11;8.85;;;3.05;;
29384;SDS011;16367;48.736;9.218;2022-11-25T09:24:14;8.90;;;3.03;;
29384;SDS011;16367;48.736;9.218;2022-11-25T09:26:18;8.93;;;3.47;;
29384;SDS011;16367;48.736;9.218;2022-11-25T09:28:24;8.05;;;3.40;;
29384;SDS011;16367;48.736;9.218;2022-11-25T09:30:28;8.82;;;3.13;;
29384;SDS011;16367;48.736;9.218;2022-11-25T09:32:31;7.75;;;3.20;;
29384;SDS011;16367;48.736;9.218;2022-11-25T09:34:35;10.77;;;3.30;;
29384;SDS011;16367;48.736;9.218;2022-11-25T09:36:38;7.20;;;2.97;;
29384;SDS011;16367;48.736;9.218;2022-11-25T09:38:41;6.28;;;3.08;;
29384;SDS011;16367;48.736;9.218;2022-11-25T09:40:47;8.57;;;3.13;;
29384;SDS011;16367;48.736;9.218;2022-11-25T09:42:57;9.30;;;3.22;;
29384;SDS011;16367;48.736;9.218;2022-11-25T09:45:26;6.47;;;3.13;;
29384;SDS011;16367;48.736;9.218;2022-11-25T09:47:57;14.57;;;3.28;;
29384;SDS011;16367;48.736;9.218;2022-11-25T09:50:11;7.15;;;3.53;;
29384;SDS011;16367;48.736;9.218;2022-11-25T09:52:22;9.48;;;3.85;;
29384;SDS011;16367;48.736;9.218;2022-11-25T09:54:33;8.35;;;3.13;;
29384;SDS011;16367;48.736;9.218;2022-11-25T09:58:44;7.20;;;3.33;;
29384;SDS011;16367;48.736;9.218;2022-11-25T10:00:53;7.53;;;2.90;;
29384;SDS011;16367;48.736;9.218;2022-11-25T10:02:57;8.38;;;3.00;;
29384;SDS011;16367;48.736;9.218;2022-11-25T10:05:06;9.50;;;3.72;;
29384;SDS011;16367;48.736;9.218;2022-11-25T10:07:17;8.00;;;3.55;;
29384;SDS011;16367;48.736;9.218;2022-11-25T10:09:24;11.80;;;3.85;;
29384;SDS011;16367;48.736;9.218;2022-11-25T10:11:36;9.52;;;3.20;;
29384;SDS011;16367;48.736;9.218;2022-11-25T10:13:48;7.00;;;3.22;;
29384;SDS011;16367;48.736;9.218;2022-11-25T10:15:56;7.22;;;2.90;;
29384;SDS011;16367;48.736;9.218;2022-11-25T10:18:02;8.70;;;3.78;;
29384;SDS011;16367;48.736;9.218;2022-11-25T10:20:12;7.88;;;3.10;;
29384;SDS011;16367;48.736;9.218;2022-11-25T10:22:23;9.13;;;3.40;;
29384;SDS011;16367;48.736;9.218;2022-11-25T10:24:27;9.57;;;3.58;;
29384;SDS011;16367;48.736;9.218;2022-11-25T10:26:31;9.25;;;3.88;;
29384;SDS011;16367;48.736;9.218;2022-11-25T10:28:43;11.18;;;3.65;;
29384;SDS011;16367;48.736;9.218;2022-11-25T10:30:53;8.25;;;3.67;;
29384;SDS011;16367;48.736;9.218;2022-11-25T10:33:03;11.35;;;3.40;;
29384;SDS011;16367;48.736;9.218;2022-11-25T10:35:18;9.32;;;3.58;;
29384;SDS011;16367;48.736;9.218;2022-11-25T10:37:27;9.65;;;3.90;;
29384;SDS011;16367;48.736;9.218;2022-11-25T10:39:35;7.18;;;3.30;;
29384;SDS011;16367;48.736;9.218;2022-11-25T10:41:41;7.47;;;3.33;;
29384;SDS011;16367;48.736;9.218;2022-11-25T10:43:47;7.80;;;3.63;;
29384;SDS011;16367;48.736;9.218;2022-11-25T10:45:51;10.75;;;3.55;;
29384;SDS011;16367;48.736;9.218;2022-11-25T10:48:06;8.35;;;3.20;;
29384;SDS011;16367;48.736;9.218;2022-11-25T10:50:21;8.32;;;3.72;;
29384;SDS011;16367;48.736;9.218;2022-11-25T10:52:34;7.60;;;2.92;;
29384;SDS011;16367;48.736;9.218;2022-11-25T10:54:53;9.98;;;3.30;;
29384;SDS011;16367;48.736;9.218;2022-11-25T10:56:58;7.78;;;3.20;;
29384;SDS011;16367;48.736;9.218;2022-11-25T10:59:05;8.35;;;2.72;;
29384;SDS011;16367;48.736;9.218;2022-11-25T11:01:15;7.88;;;2.58;;
29384;SDS011;16367;48.736;9.218;2022-11-25T11:03:23;7.70;;;2.60;;
29384;SDS011;16367;48.736;9.218;2022-11-25T11:05:28;7.03;;;2.53;;
29384;SDS011;16367;48.736;9.218;2022-11-25T11:07:34;8.02;;;2.42;;
29384;SDS011;16367;48.736;9.218;2022-11-25T11:11:45;5.55;;;2.28;;
29384;SDS011;16367;48.736;9.218;2022-11-25T11:13:49;7.90;;;2.45;;
29384;SDS011;16367;48.736;9.218;2022-11-25T11:16:00;5.95;;;2.33;;
29384;SDS011;16367;48.736;9.218;2022-11-25T11:18:14;8.88;;;2.97;;
29384;SDS011;16367;48.736;9.218;2022-11-25T11:20:24;6.57;;;2.47;;
29384;SDS011;16367;48.736;9.218;2022-11-25T11:22:29;10.93;;;2.95;;
29384;SDS011;16367;48.736;9.218;2022-11-25T11:24:35;11.38;;;2.50;;
29384;SDS011;16367;48.736;9.218;2022-11-25T11:26:39;8.27;;;2.38;;
29384;SDS011;16367;48.736;9.218;2022-11-25T11:28:42;8.02;;;2.58;;
29384;SDS011;16367;48.736;9.218;2022-11-25T11:30:52;8.00;;;2.33;;
29384;SDS011;16367;48.736;9.218;2022-11-25T11:33:02;4.57;;;1.35;;
29384;SDS011;16367;48.736;9.218;2022-11-25T11:35:07;6.75;;;2.17;;
29384;SDS011;16367;48.736;9.218;2022-11-25T11:37:28;8.90;;;2.25;;
29384;SDS011;16367;48.736;9.218;2022-11-25T11:39:49;7.75;;;1.83;;
29384;SDS011;16367;48.736;9.218;2022-11-25T11:42:05;6.72;;;1.90;;
29384;SDS011;16367;48.736;9.218;2022-11-25T11:44:17;6.55;;;1.95;;
29384;SDS011;16367;48.736;9.218;2022-11-25T11:46:31;4.57;;;2.00;;
29384;SDS011;16367;48.736;9.218;2022-11-25T11:48:44;5.80;;;1.60;;
29384;SDS011;16367;48.736;9.218;2022-11-25T11:50:59;5.20;;;1.55;;
29384;SDS011;16367;48.736;9.218;2022-11-25T11:53:12;5.57;;;1.90;;
29384;SDS011;16367;48.736;9.218;2022-11-25T11:55:27;6.10;;;2.22;;
29384;SDS011;16367;48.736;9.218;2022-11-25T11:57:43;7.70;;;1.88;;
29384;SDS011;16367;48.736;9.218;2022-11-25T11:59:54;8.52;;;2.25;;
29384;SDS011;16367;48.736;9.218;2022-11-25T12:02:12;5.57;;;1.65;;
29384;SDS011;16367;48.736;9.218;2022-11-25T12:04:24;5.93;;;2.35;;
29384;SDS011;16367;48.736;9.218;2022-11-25T12:06:32;7.85;;;2.60;;
29384;SDS011;16367;48.736;9.218;2022-11-25T12:08:41;8.80;;;2.38;;
29384;SDS011;16367;48.736;9.218;2022-11-25T12:10:54;8.50;;;3.25;;
29384;SDS011;16367;48.736;9.218;2022-11-25T12:13:03;8.88;;;3.10;;
29384;SDS011;16367;48.736;9.218;2022-11-25T12:15:14;8.57;;;3.20;;
29384;SDS011;16367;48.736;9.218;2022-11-25T12:17:22;7.55;;;3.17;;
29384;SDS011;16367;48.736;9.218;2022-11-25T12:19:32;8.85;;;3.55;;
29384;SDS011;16367;48.736;9.218;2022-11-25T12:21:42;7.72;;;2.95;;
29384;SDS011;16367;48.736;9.218;2022-11-25T12:23:52;10.05;;;3.75;;
29384;SDS011;16367;48.736;9.218;2022-11-25T12:26:18;9.18;;;3.03;;
29384;SDS011;16367;48.736;9.218;2022-11-25T12:28:28;6.18;;;2.50;;
29384;SDS011;16367;48.736;9.218;2022-11-25T12:30:37;8.60;;;2.92;;
29384;SDS011;16367;48.736;9.218;2022-11-25T12:32:48;9.25;;;2.97;;
29384;SDS011;16367;48.736;9.218;2022-11-25T12:34:55;7.22;;;2.80;;
29384;SDS011;16367;48.736;9.218;2022-11-25T12:37:04;10.43;;;2.10;;
29384;SDS011;16367;48.736;9.218;2022-11-25T12:39:18;5.97;;;2.10;;